Irthlingborough, United Kingdom
Current Conditions -  °F | °C
As of 3:50 PM on Thursday 29 Jan 2015 (Local Time) from EGTC Reporting Station
Few Clouds Few Clouds  
Wind Chill: 28°   Ceiling: Unl
Heat Index: 34°   Visibility: 6mi
Dew Point: 32°   Wind: 7mph
Humidity: 93%   Direction: 290°WNW
Pressure: 28.79"   Gusts: NA
Location:  52.33°N, 0.61°W
Report Text: EGTC 291550Z 29006KT 9999 FEW009 01/00 Q0975
Loading
Personal Weather Stations






























Interactive Weather Map New forecast layout! Learn more

10-Day Weather Forecast

Advertisements
Track Severe Weather on mobile